createdAt,value
2022-08-03T00:01:50.808Z,4.28
2022-08-03T00:04:18.059Z,4.10
2022-08-03T00:06:45.080Z,3.50
2022-08-03T00:09:12.194Z,3.83
2022-08-03T00:11:59.951Z,4.40
2022-08-03T00:14:26.940Z,4.47
2022-08-03T00:16:53.812Z,4.20
2022-08-03T00:19:20.832Z,3.92
2022-08-03T00:21:49.039Z,3.58
2022-08-03T00:24:16.073Z,3.80
2022-08-03T00:26:43.045Z,4.00
2022-08-03T00:29:09.972Z,4.30
2022-08-03T00:31:52.474Z,4.68
2022-08-03T00:34:36.727Z,4.00
2022-08-03T00:37:13.458Z,4.10
2022-08-03T00:39:40.923Z,3.90
2022-08-03T00:42:10.022Z,4.75
2022-08-03T00:44:46.085Z,4.63
2022-08-03T00:47:13.255Z,5.05
2022-08-03T00:49:42.239Z,4.32
2022-08-03T00:52:10.004Z,4.97
2022-08-03T00:54:38.553Z,4.20
2022-08-03T00:57:05.572Z,4.18
2022-08-03T00:59:32.808Z,3.90
2022-08-03T01:01:59.714Z,4.07
2022-08-03T01:04:28.086Z,4.65
2022-08-03T01:07:11.921Z,4.55
2022-08-03T01:09:44.085Z,5.10
2022-08-03T01:12:21.102Z,4.45
2022-08-03T01:15:23.116Z,4.50
2022-08-03T01:18:24.173Z,4.93
2022-08-03T01:20:56.834Z,4.63
2022-08-03T01:23:34.184Z,5.35
2022-08-03T01:26:20.406Z,5.50
2022-08-03T01:29:08.186Z,5.78
2022-08-03T01:32:59.921Z,5.70
2022-08-03T01:34:34.487Z,7.03
2022-08-03T01:37:05.296Z,6.57
2022-08-03T01:39:38.161Z,7.30
2022-08-03T01:42:07.558Z,8.05
2022-08-03T01:44:38.520Z,8.93
2022-08-03T01:47:06.554Z,7.63
2022-08-03T01:49:38.660Z,7.20
2022-08-03T01:52:07.195Z,8.25
2022-08-03T01:54:41.977Z,9.52
2022-08-03T01:57:09.917Z,9.82
2022-08-03T01:59:38.968Z,10.75
2022-08-03T02:02:31.902Z,11.18
2022-08-03T02:04:57.614Z,10.98
2022-08-03T02:07:26.308Z,12.07
2022-08-03T02:09:54.974Z,11.68
2022-08-03T02:12:25.311Z,11.88
2022-08-03T02:14:52.763Z,12.25
2022-08-03T02:17:39.434Z,12.90
2022-08-03T02:20:12.263Z,12.55
2022-08-03T02:22:44.492Z,12.88
2022-08-03T02:25:14.034Z,12.60
2022-08-03T02:27:52.182Z,11.40
2022-08-03T02:30:20.636Z,11.27
2022-08-03T02:32:58.123Z,10.85
2022-08-03T02:35:29.569Z,10.32
2022-08-03T02:38:01.047Z,10.13
2022-08-03T02:40:33.289Z,8.93
2022-08-03T02:43:04.140Z,8.73
2022-08-03T02:45:35.990Z,7.95
2022-08-03T02:48:05.468Z,7.75
2022-08-03T02:50:35.229Z,7.38
2022-08-03T02:53:03.017Z,6.55
2022-08-03T02:55:32.723Z,6.20
2022-08-03T02:58:01.346Z,6.65
2022-08-03T03:00:32.929Z,5.63
2022-08-03T03:03:01.930Z,6.13
2022-08-03T03:05:55.590Z,5.80
2022-08-03T03:08:20.821Z,5.70
2022-08-03T03:10:55.671Z,5.25
2022-08-03T03:13:23.761Z,5.20
2022-08-03T03:15:52.591Z,4.97
2022-08-03T03:18:22.735Z,5.13
2022-08-03T03:20:51.787Z,4.68
2022-08-03T03:23:21.575Z,4.68
2022-08-03T03:25:49.000Z,5.20
2022-08-03T03:28:15.987Z,4.93
2022-08-03T03:30:44.861Z,5.13
2022-08-03T03:33:20.139Z,5.70
2022-08-03T03:35:47.536Z,5.78
2022-08-03T03:38:14.651Z,5.53
2022-08-03T03:40:41.976Z,5.25
2022-08-03T03:43:10.010Z,6.25
2022-08-03T03:45:37.489Z,7.45
2022-08-03T03:48:05.544Z,7.53
2022-08-03T03:50:35.299Z,7.10
2022-08-03T03:53:02.787Z,7.20
2022-08-03T03:55:30.506Z,6.80
2022-08-03T03:57:57.389Z,6.30
2022-08-03T04:00:24.440Z,6.32
2022-08-03T04:02:51.316Z,6.75
2022-08-03T04:05:36.695Z,5.53
2022-08-03T04:08:25.931Z,5.80
2022-08-03T04:11:15.540Z,5.47
2022-08-03T04:13:55.623Z,5.68
2022-08-03T04:16:32.507Z,5.90
2022-08-03T04:19:08.123Z,6.60
2022-08-03T04:21:40.823Z,6.18
2022-08-03T04:24:10.600Z,6.95
2022-08-03T04:26:40.790Z,6.05
2022-08-03T04:29:09.370Z,6.80
2022-08-03T04:31:38.471Z,6.53
2022-08-03T04:34:05.976Z,6.50
2022-08-03T04:36:37.092Z,6.85
2022-08-03T04:39:10.786Z,7.38
2022-08-03T04:42:06.711Z,7.75
2022-08-03T04:44:28.842Z,7.32
2022-08-03T04:46:57.080Z,7.93
2022-08-03T04:49:24.767Z,7.50
2022-08-03T04:51:52.672Z,7.85
2022-08-03T04:54:19.616Z,8.32
2022-08-03T04:56:46.681Z,8.07
2022-08-03T04:59:13.920Z,7.82
2022-08-03T05:01:42.300Z,9.50
2022-08-03T05:04:09.535Z,9.60
2022-08-03T05:06:36.832Z,9.93
2022-08-03T05:09:14.938Z,10.20
2022-08-03T05:11:42.912Z,9.82
2022-08-03T05:14:09.817Z,9.07
2022-08-03T05:16:36.814Z,10.15
2022-08-03T05:19:03.811Z,10.07
2022-08-03T05:21:49.299Z,8.73
2022-08-03T05:24:17.820Z,9.18
2022-08-03T05:26:44.684Z,8.48
2022-08-03T05:29:12.078Z,7.55
2022-08-03T05:32:16.796Z,7.93
2022-08-03T05:34:44.463Z,7.30
2022-08-03T05:37:11.780Z,7.18
2022-08-03T05:39:40.926Z,7.47
2022-08-03T05:42:07.944Z,7.70
2022-08-03T05:44:38.606Z,7.10
2022-08-03T05:47:06.070Z,6.88
2022-08-03T05:49:33.090Z,7.75
2022-08-03T05:52:15.597Z,6.95
2022-08-03T05:54:56.269Z,7.68
2022-08-03T05:57:24.201Z,7.97
2022-08-03T06:00:11.422Z,7.97
2022-08-03T06:02:39.949Z,8.02
2022-08-03T06:05:07.396Z,8.10
2022-08-03T06:07:34.374Z,7.35
2022-08-03T06:10:36.451Z,7.43
2022-08-03T06:13:05.441Z,7.05
2022-08-03T06:15:33.408Z,7.05
2022-08-03T06:18:02.253Z,5.78
2022-08-03T06:20:49.416Z,6.78
2022-08-03T06:23:18.091Z,6.18
2022-08-03T06:25:45.818Z,5.95
2022-08-03T06:28:51.367Z,5.28
2022-08-03T06:31:03.833Z,5.50
2022-08-03T06:34:30.228Z,5.00
2022-08-03T06:36:21.212Z,4.78
2022-08-03T06:38:48.112Z,4.32
2022-08-03T06:41:53.898Z,3.97
2022-08-03T06:44:21.175Z,3.63
2022-08-03T06:46:48.163Z,4.15
2022-08-03T06:49:15.120Z,3.55
2022-08-03T06:52:05.155Z,3.30
2022-08-03T06:54:33.202Z,3.30
2022-08-03T06:57:01.096Z,3.10
2022-08-03T07:00:10.527Z,3.05
2022-08-03T07:02:18.958Z,3.42
2022-08-03T07:04:47.864Z,2.97
2022-08-03T07:07:14.715Z,2.80
2022-08-03T07:10:02.232Z,2.75
2022-08-03T07:12:30.468Z,2.90
2022-08-03T07:15:01.166Z,2.60
2022-08-03T07:17:30.953Z,2.90
2022-08-03T07:20:00.340Z,2.88
2022-08-03T07:22:27.509Z,2.60
2022-08-03T07:24:54.994Z,2.53
2022-08-03T07:27:22.507Z,2.70
2022-08-03T07:29:49.494Z,2.78
2022-08-03T07:32:16.611Z,2.80
2022-08-03T07:34:43.849Z,2.90
2022-08-03T07:37:11.348Z,2.78
2022-08-03T07:39:41.178Z,2.75
2022-08-03T07:42:08.426Z,2.78
2022-08-03T07:44:35.309Z,2.75
2022-08-03T07:47:03.337Z,3.13
2022-08-03T07:49:31.709Z,2.92
2022-08-03T07:52:17.425Z,3.05
2022-08-03T07:54:44.576Z,2.88
2022-08-03T07:57:11.716Z,2.78
2022-08-03T08:00:01.399Z,2.22
2022-08-03T08:02:27.052Z,2.55
2022-08-03T08:04:54.005Z,2.38
2022-08-03T08:07:21.185Z,2.63
2022-08-03T08:09:50.351Z,2.30
2022-08-03T08:12:18.946Z,2.03
2022-08-03T08:14:46.785Z,1.83
2022-08-03T08:17:14.714Z,1.95
2022-08-03T08:19:51.298Z,1.85
2022-08-03T08:22:23.468Z,1.70
2022-08-03T08:24:59.393Z,1.52
2022-08-03T08:27:26.507Z,1.80
2022-08-03T08:29:55.755Z,1.67
2022-08-03T08:32:26.105Z,1.50
2022-08-03T08:34:53.394Z,1.45
2022-08-03T08:37:20.297Z,1.15
2022-08-03T08:39:49.509Z,1.20
2022-08-03T08:42:16.628Z,1.10
2022-08-03T08:44:43.741Z,0.90
2022-08-03T08:47:10.895Z,0.90
2022-08-03T08:49:46.482Z,1.05
2022-08-03T08:52:31.798Z,0.90
2022-08-03T08:55:03.871Z,1.00
2022-08-03T08:57:42.722Z,1.38
2022-08-03T09:00:15.170Z,1.20
2022-08-03T09:02:43.359Z,0.98
2022-08-03T09:05:13.203Z,0.90
2022-08-03T09:07:41.755Z,1.00
2022-08-03T09:10:13.253Z,1.10
2022-08-03T09:12:43.993Z,0.85
2022-08-03T09:15:24.941Z,1.00
2022-08-03T09:17:53.848Z,1.20
2022-08-03T09:20:23.206Z,1.20
2022-08-03T09:22:55.940Z,1.48
2022-08-03T09:25:28.997Z,1.48
2022-08-03T09:30:34.328Z,1.48
2022-08-03T09:33:08.356Z,1.40
2022-08-03T09:35:54.813Z,1.10
2022-08-03T09:38:29.287Z,0.90
2022-08-03T09:41:00.364Z,1.30
2022-08-03T09:43:28.101Z,1.70
2022-08-03T09:46:07.283Z,1.50
2022-08-03T09:48:37.343Z,1.48
2022-08-03T09:51:13.195Z,1.33
2022-08-03T09:53:59.324Z,1.58
2022-08-03T09:56:41.309Z,1.27
2022-08-03T09:59:09.112Z,1.02
2022-08-03T10:01:40.004Z,1.13
2022-08-03T10:04:11.919Z,0.95
2022-08-03T10:06:38.874Z,0.98
2022-08-03T10:09:10.038Z,1.27
2022-08-03T10:11:41.577Z,1.05
2022-08-03T10:14:18.725Z,1.10
2022-08-03T10:16:47.265Z,0.80
2022-08-03T10:19:15.587Z,1.02
2022-08-03T10:21:49.438Z,1.35
2022-08-03T10:24:20.213Z,1.17
2022-08-03T10:26:49.861Z,1.20
2022-08-03T10:29:28.175Z,0.88
2022-08-03T10:31:58.917Z,0.90
2022-08-03T10:34:29.050Z,0.90
2022-08-03T10:37:00.016Z,1.00
2022-08-03T10:39:30.764Z,1.05
2022-08-03T10:41:58.896Z,0.77
2022-08-03T10:44:37.717Z,0.90
2022-08-03T10:47:05.091Z,0.80
2022-08-03T10:49:35.538Z,1.05
2022-08-03T10:52:13.217Z,0.90
2022-08-03T10:55:10.860Z,1.05
2022-08-03T10:58:09.327Z,0.90
2022-08-03T11:00:51.025Z,1.65
2022-08-03T11:03:18.626Z,1.10
2022-08-03T11:05:49.090Z,1.38
2022-08-03T11:08:31.384Z,0.80
2022-08-03T11:11:17.815Z,0.77
2022-08-03T11:14:28.274Z,0.73
2022-08-03T11:17:14.149Z,0.70
2022-08-03T11:19:57.662Z,1.00
2022-08-03T11:22:25.594Z,0.80
2022-08-03T11:24:56.384Z,0.60
2022-08-03T11:27:25.166Z,0.80
2022-08-03T11:30:08.925Z,0.80
2022-08-03T11:32:48.380Z,0.55
2022-08-03T11:35:30.025Z,0.82
2022-08-03T11:38:07.078Z,0.80
2022-08-03T11:40:48.183Z,0.80
2022-08-03T11:43:31.590Z,1.00
2022-08-03T11:46:08.791Z,0.80
2022-08-03T11:48:44.327Z,0.90
2022-08-03T11:51:32.192Z,0.85
2022-08-03T11:54:00.731Z,1.00
2022-08-03T11:56:28.931Z,0.70
2022-08-03T11:59:20.494Z,1.20
2022-08-03T12:01:46.747Z,1.00
2022-08-03T12:04:13.764Z,0.82
2022-08-03T12:06:55.806Z,0.80
2022-08-03T12:09:22.979Z,1.00
2022-08-03T12:12:00.869Z,1.00
2022-08-03T12:14:48.237Z,1.20
2022-08-03T12:17:17.131Z,0.68
2022-08-03T12:19:44.923Z,0.65
2022-08-03T12:22:11.961Z,1.10
2022-08-03T12:24:43.348Z,1.02
2022-08-03T12:27:10.373Z,0.80
2022-08-03T12:29:39.847Z,1.00
2022-08-03T12:32:07.196Z,1.13
2022-08-03T12:34:50.316Z,0.90
2022-08-03T12:37:23.435Z,0.77
2022-08-03T12:40:34.392Z,0.70
2022-08-03T12:43:03.578Z,0.63
2022-08-03T12:45:31.996Z,0.70
2022-08-03T12:48:04.824Z,1.13
2022-08-03T12:50:53.683Z,0.70
2022-08-03T12:53:29.427Z,0.70
2022-08-03T12:56:05.662Z,0.70
2022-08-03T12:58:36.156Z,0.70
2022-08-03T13:01:55.140Z,1.00
2022-08-03T13:04:38.691Z,0.85
2022-08-03T13:07:14.372Z,0.80
2022-08-03T13:09:45.017Z,0.55
2022-08-03T13:12:22.146Z,0.60
2022-08-03T13:14:57.374Z,0.63
2022-08-03T13:17:25.506Z,0.80
2022-08-03T13:19:54.941Z,0.80
2022-08-03T13:22:28.993Z,0.68
2022-08-03T13:24:57.514Z,0.73
2022-08-03T13:28:04.047Z,0.93
2022-08-03T13:30:13.270Z,1.33
2022-08-03T13:32:40.831Z,0.88
2022-08-03T13:35:09.241Z,0.80
2022-08-03T13:37:37.469Z,0.80
2022-08-03T13:40:07.115Z,0.90
2022-08-03T13:42:35.816Z,0.80
2022-08-03T13:45:05.683Z,0.90
2022-08-03T13:47:32.686Z,1.15
2022-08-03T13:50:02.504Z,0.63
2022-08-03T13:52:34.932Z,1.05
2022-08-03T13:55:03.794Z,0.80
2022-08-03T13:58:03.796Z,0.70
2022-08-03T14:00:27.226Z,0.68
2022-08-03T14:03:16.396Z,0.80
2022-08-03T14:05:45.910Z,0.75
2022-08-03T14:08:19.061Z,0.77
2022-08-03T14:10:48.825Z,1.08
2022-08-03T14:16:01.327Z,0.63
2022-08-03T14:17:42.375Z,0.70
2022-08-03T14:23:13.086Z,0.77
2022-08-03T14:26:07.458Z,0.77
2022-08-03T14:28:36.202Z,0.95
2022-08-03T14:31:08.449Z,0.52
2022-08-03T14:33:55.180Z,0.68
2022-08-03T14:36:25.658Z,0.98
2022-08-03T14:39:00.765Z,0.93
2022-08-03T14:41:30.549Z,0.82
2022-08-03T14:44:00.415Z,1.38
2022-08-03T14:46:37.658Z,0.60
2022-08-03T14:50:37.034Z,0.63
2022-08-03T14:52:06.316Z,0.80
2022-08-03T14:54:37.784Z,0.77
2022-08-03T14:57:05.177Z,0.55
2022-08-03T14:59:56.105Z,0.85
2022-08-03T15:02:23.898Z,0.73
2022-08-03T15:04:51.674Z,1.00
2022-08-03T15:07:21.503Z,0.98
2022-08-03T15:09:50.795Z,0.60
2022-08-03T15:12:17.867Z,0.80
2022-08-03T15:14:44.901Z,0.80
2022-08-03T15:17:11.977Z,0.82
2022-08-03T15:20:03.141Z,0.65
2022-08-03T15:22:34.727Z,0.50
2022-08-03T15:25:04.156Z,0.60
2022-08-03T15:28:03.687Z,0.50
2022-08-03T15:30:36.857Z,0.70
2022-08-03T15:33:04.364Z,0.90
2022-08-03T15:35:31.445Z,0.98
2022-08-03T15:37:58.463Z,0.95
2022-08-03T15:40:26.775Z,0.70
2022-08-03T15:42:53.876Z,1.00
2022-08-03T15:45:20.867Z,0.60
2022-08-03T15:47:47.974Z,0.80
2022-08-03T15:50:15.245Z,0.60
2022-08-03T15:52:42.286Z,0.45
2022-08-03T15:55:09.818Z,0.57
2022-08-03T15:59:04.533Z,0.47
2022-08-03T16:00:33.265Z,0.85
2022-08-03T16:03:02.635Z,0.63
2022-08-03T16:05:29.634Z,0.40
2022-08-03T16:08:03.913Z,0.57
2022-08-03T16:10:58.221Z,0.63
2022-08-03T16:14:13.045Z,0.68
2022-08-03T16:16:14.037Z,0.38
2022-08-03T16:20:29.212Z,0.60
2022-08-03T16:27:58.135Z,0.50
2022-08-03T16:30:16.623Z,0.60
2022-08-03T16:32:45.232Z,0.75
2022-08-03T16:35:19.317Z,0.57
2022-08-03T16:37:56.844Z,0.40
2022-08-03T16:40:25.613Z,0.40
2022-08-03T16:42:52.852Z,0.55
2022-08-03T16:45:19.915Z,0.57
2022-08-03T16:47:47.081Z,0.30
2022-08-03T16:50:28.629Z,1.05
2022-08-03T16:52:55.606Z,0.73
2022-08-03T16:55:43.606Z,0.40
2022-08-03T16:58:12.375Z,0.40
2022-08-03T17:00:42.146Z,0.43
2022-08-03T17:03:19.041Z,0.60
2022-08-03T17:05:49.726Z,0.35
2022-08-03T17:08:26.300Z,0.68
2022-08-03T17:10:56.439Z,0.70
2022-08-03T17:13:39.205Z,0.43
2022-08-03T17:16:09.835Z,0.68
2022-08-03T17:18:42.125Z,0.30
2022-08-03T17:21:39.318Z,0.50
2022-08-03T17:24:19.656Z,0.60
2022-08-03T17:26:49.894Z,0.50
2022-08-03T17:29:25.168Z,0.50
2022-08-03T17:31:53.241Z,0.50
2022-08-03T17:34:26.363Z,0.65
2022-08-03T17:37:26.898Z,0.50
2022-08-03T17:39:59.916Z,0.55
2022-08-03T17:42:31.900Z,0.50
2022-08-03T17:45:16.232Z,0.52
2022-08-03T17:47:43.727Z,0.60
2022-08-03T17:50:24.518Z,0.60
2022-08-03T17:56:44.331Z,0.80
2022-08-03T17:59:51.591Z,0.73
2022-08-03T18:02:53.286Z,0.60
2022-08-03T18:05:21.797Z,0.70
2022-08-03T18:07:59.347Z,0.52
2022-08-03T18:11:09.815Z,0.77
2022-08-03T18:13:53.284Z,0.75
2022-08-03T18:16:50.527Z,0.70
2022-08-03T18:19:18.053Z,0.77
2022-08-03T18:22:25.212Z,0.77
2022-08-03T18:24:53.028Z,0.93
2022-08-03T18:27:21.491Z,1.08
2022-08-03T18:29:49.688Z,1.03
2022-08-03T18:32:17.259Z,1.00
2022-08-03T18:34:53.747Z,0.80
2022-08-03T18:37:25.107Z,0.75
2022-08-03T18:39:58.136Z,1.08
2022-08-03T18:42:26.819Z,0.93
2022-08-03T18:44:56.322Z,1.10
2022-08-03T18:47:50.498Z,0.88
2022-08-03T18:50:30.548Z,1.02
2022-08-03T18:53:19.771Z,0.93
2022-08-03T18:56:03.312Z,1.10
2022-08-03T18:58:40.063Z,1.00
2022-08-03T19:02:00.292Z,0.80
2022-08-03T19:04:58.336Z,1.08
2022-08-03T19:07:35.883Z,1.73
2022-08-03T19:10:09.356Z,1.20
2022-08-03T19:13:01.949Z,1.20
2022-08-03T19:15:37.037Z,1.13
2022-08-03T19:18:16.094Z,1.30
2022-08-03T19:20:46.767Z,1.70
2022-08-03T19:23:14.466Z,1.60
2022-08-03T19:25:41.865Z,1.13
2022-08-03T19:28:09.271Z,1.20
2022-08-03T19:30:40.429Z,2.58
2022-08-03T19:33:15.611Z,2.03
2022-08-03T19:35:55.370Z,6.53
2022-08-03T19:38:28.285Z,3.50
2022-08-03T19:40:59.765Z,8.32
2022-08-03T19:43:52.978Z,6.13
2022-08-03T19:46:31.523Z,5.30
2022-08-03T19:49:02.020Z,5.18
2022-08-03T19:52:01.313Z,5.20
2022-08-03T19:54:25.543Z,3.95
2022-08-03T19:56:58.723Z,2.40
2022-08-03T19:59:26.828Z,2.72
2022-08-03T20:01:54.289Z,2.97
2022-08-03T20:04:22.057Z,2.60
2022-08-03T20:06:50.065Z,2.33
2022-08-03T20:09:18.779Z,1.88
2022-08-03T20:12:26.463Z,1.88
2022-08-03T20:14:57.455Z,1.50
2022-08-03T20:20:38.683Z,1.50
2022-08-03T20:23:11.321Z,1.60
2022-08-03T20:25:48.975Z,1.42
2022-08-03T20:28:26.781Z,1.60
2022-08-03T20:30:54.404Z,1.80
2022-08-03T20:33:27.797Z,1.60
2022-08-03T20:36:10.394Z,1.50
2022-08-03T20:38:47.145Z,1.40
2022-08-03T20:42:30.181Z,1.48
2022-08-03T20:45:04.399Z,1.65
2022-08-03T20:47:50.632Z,1.42
2022-08-03T20:50:21.802Z,1.73
2022-08-03T20:52:52.005Z,1.55
2022-08-03T20:55:20.405Z,1.75
2022-08-03T20:58:07.221Z,1.50
2022-08-03T21:00:34.297Z,1.77
2022-08-03T21:03:01.664Z,1.63
2022-08-03T21:05:47.856Z,1.90
2022-08-03T21:08:21.141Z,1.75
2022-08-03T21:10:49.444Z,1.90
2022-08-03T21:13:03.793Z,1.67
2022-08-03T21:13:24.772Z,1.60
2022-08-03T21:16:07.106Z,1.58
2022-08-03T21:18:48.975Z,1.92
2022-08-03T21:21:21.255Z,1.60
2022-08-03T21:23:55.332Z,1.57
2022-08-03T21:26:25.355Z,1.20
2022-08-03T21:28:55.052Z,1.70
2022-08-03T21:31:47.223Z,1.67
2022-08-03T21:34:14.693Z,1.73
2022-08-03T21:36:42.172Z,1.75
2022-08-03T21:39:10.695Z,1.80
2022-08-03T21:41:40.482Z,1.77
2022-08-03T21:44:08.113Z,1.58
2022-08-03T21:46:40.419Z,1.30
2022-08-03T21:50:04.616Z,1.60
2022-08-03T21:51:59.496Z,1.60
2022-08-03T21:54:38.157Z,1.30
2022-08-03T21:57:10.313Z,1.45
2022-08-03T21:59:44.840Z,1.85
2022-08-03T22:02:22.823Z,1.80
2022-08-03T22:04:56.408Z,1.70
2022-08-03T22:07:29.062Z,1.75
2022-08-03T22:09:59.348Z,1.80
2022-08-03T22:12:28.444Z,1.77
2022-08-03T22:15:01.204Z,1.85
2022-08-03T22:17:53.801Z,1.30
2022-08-03T22:20:20.656Z,1.70
2022-08-03T22:22:55.406Z,1.50
2022-08-03T22:25:28.769Z,1.92
2022-08-03T22:27:56.321Z,1.60
2022-08-03T22:30:23.259Z,1.40
2022-08-03T22:32:53.826Z,1.80
2022-08-03T22:35:21.537Z,1.42
2022-08-03T22:37:54.847Z,1.38
2022-08-03T22:40:23.493Z,1.40
2022-08-03T22:42:52.242Z,1.38
2022-08-03T22:46:05.960Z,1.30
2022-08-03T22:48:08.174Z,1.52
2022-08-03T22:51:05.202Z,1.50
2022-08-03T22:53:32.638Z,1.50
2022-08-03T22:55:59.681Z,1.60
2022-08-03T22:58:26.705Z,1.33
2022-08-03T23:01:04.245Z,1.60
2022-08-03T23:03:59.690Z,1.63
2022-08-03T23:06:23.241Z,1.50
2022-08-03T23:08:50.924Z,1.70
2022-08-03T23:11:22.168Z,1.88
2022-08-03T23:13:54.109Z,1.80
2022-08-03T23:16:28.817Z,1.83
2022-08-03T23:18:59.564Z,1.75
2022-08-03T23:22:02.444Z,1.52
2022-08-03T23:24:33.253Z,1.60
2022-08-03T23:27:06.388Z,2.00
2022-08-03T23:32:07.458Z,1.88
2022-08-03T23:34:53.892Z,2.03
2022-08-03T23:37:21.291Z,2.78
2022-08-03T23:39:52.408Z,1.77
2022-08-03T23:42:20.487Z,2.30
2022-08-03T23:44:50.292Z,1.60
2022-08-03T23:47:17.185Z,1.83
2022-08-03T23:49:44.373Z,2.40
2022-08-03T23:52:21.816Z,1.55
2022-08-03T23:55:26.971Z,1.73
2022-08-03T23:58:01.785Z,1.65
